Flight Track Log - Related Links

Times and Time Zones

All times are in EDT time to prevent confusion due to time zone crossing. See the CNS33 flight status page for this flight to view local times or setup timezone preferences in your user account.

Time Position Orientation Groundspeed Altitude Reporting Facility
EDT Latitude Longitude Course Direction KTS MPH feet Rate Location/Type
Wed 09:16:46 AM 43.0833 -70.8333 324° Northwest 108 124 700  Level KA90
Wed 09:17:22 AM 43.1000 -70.8500 324° Northwest 82 94 1,600 1,200 Climbing KA90
Wed 09:18:16 AM 43.1167 -70.8667 324° Northwest 120 138 2,500 1,150 Climbing KA90
Wed 09:19:22 AM 43.1500 -70.9167 312° West 150 173 3,900 1,238 Climbing KA90
Wed 09:20:22 AM 43.1667 -70.9833 289° West 164 189 5,100 1,500 Climbing KA90
Wed 09:21:22 AM 43.1833 -71.0333 295° West 150 173 6,900 1,400 Climbing KA90
Wed 09:22:22 AM 43.2000 -71.0833 295° West 171 197 7,900 1,050 Climbing KA90
Wed 09:23:22 AM 43.2167 -71.1333 295° West 149 171 9,000 526 Climbing KA90
Wed 09:24:16 AM 43.2333 -71.2000 289° West 191 220 8,900 -158 Descending KA90
Wed 09:25:16 AM 43.2500 -71.2667 289° West 209 241 8,700 -200 Descending KA90
Wed 09:26:16 AM 43.2667 -71.3500 285° West 227 261 8,500 -100 Descending KA90
Wed 09:27:16 AM 43.3167 -71.4167 316° Northwest 228 262 8,500  Level KA90
Wed 09:28:16 AM 43.3500 -71.3500 55° Northeast 233 268 8,500  Level KA90
Wed 09:29:16 AM 43.4000 -71.3500 360° North 227 261 8,500  Level KA90
Wed 09:30:16 AM 43.4333 -71.4000 313° West 184 212 8,500  Level KA90
Wed 09:31:16 AM 43.4500 -71.4500 295° West 152 175 8,500  Level KA90
Wed 09:32:10 AM 43.4500 -71.4833 270° West 105 121 8,500  Level KA90
Wed 09:33:16 AM 43.4333 -71.5167 235° Southwest 114 131 8,500 50 Level KA90
Wed 09:34:10 AM 43.4333 -71.5500 270° West 105 121 8,600 100 Climbing KA90
Wed 09:35:16 AM 43.4333 -71.5833 270° West 127 146 8,700  Climbing KA90
Wed 09:36:16 AM 43.4167 -71.6000 216° Southwest 103 119 8,600 48 Descending KA90
Wed 09:37:22 AM 43.3833 -71.6000 180° South 98 113 8,800 190 Climbing KA90
Wed 09:38:22 AM 43.3500 -71.6333 216° Southwest 142 163 9,000 143 Climbing KA90
Wed 09:39:28 AM 43.3833 -71.6667 324° Northwest 123 142 9,100  Climbing KA90
Wed 09:40:28 AM 43.4000 -71.7000 305° West 128 147 9,000 -50 Descending KA90
Wed 09:41:28 AM 43.4333 -71.7333 324° Northwest 121 139 9,000 -150 Level KA90
Wed 09:42:28 AM 43.4500 -71.7833 295° West 144 166 8,700 -263 Descending KA90
Wed 09:43:22 AM 43.4167 -71.8167 216° Southwest 168 193 8,500 -105 Descending KA90
Wed 09:44:22 AM 43.3833 -71.7833 144° Southeast 179 206 8,500  Level KA90
Wed 09:45:16 AM 43.3833 -71.8000 270° West 176 203 8,500  Level KA90
Wed 09:46:22 AM 43.3667 -71.7667 125° Southeast 191 220 8,500  Level KA90

Login

Don't have an account? Register now (free) for customized features, flight alerts, and more!